Tropical Cyclones
[Index]
Main Index Home Page Stock Weather Photos Extreme Storms Discussion Storm News and Storm Chasing Reports Tropical Cyclones / Hurricanes / Typhoons Weather Data and Links Wild Fires / Bushfires Weather Observation Techniques Weather Picture Catalogue Tornado Pictures and Reports Stock Video Footage and DVDs for sale
Season 1994-1995 Tropical Cyclone HEIDA Track Map
Season 1994-1995 Summaries: [BoM-AU] [JTWC-AU] [JTWC-SIO] [JTWC-SPAC] [JTWC-SH]
<<- Previous TC | JTWC 1994-1995 Season | Next TC ->>

click for intensity scale information  Lat/long Grid: Show Hide

 Date Labels: Show Hide

Joint Typhoon Warning Centre Cyclone Data

Name: HEIDA

31 Jan 1995 18:00 UTC to 08 Feb 1995 00:00 UTC

    date/time    lat    long     hPa   cat  kts
1995-01-31 18   10.0    95.0                  15          
1995-02-01 00   10.5    95.1                  15          
1995-02-01 06   10.9    95.2                  15          
1995-02-01 12   11.3    95.3                  15          
1995-02-01 18   11.6    95.5                  15          
1995-02-02 00   11.9    95.7                  15          
1995-02-02 06   12.2    95.8                  15          
1995-02-02 12   12.5    95.9                  20          
1995-02-02 18   12.9    95.8                  20          
1995-02-03 00   13.3    95.5                  20          
1995-02-03 06   13.7    95.0                  20          
1995-02-03 12   14.1    94.4                  20          
1995-02-03 18   14.5    93.7                  25          
1995-02-04 00   15.0    92.8                  25          
1995-02-04 06   15.5    91.9                  25          
1995-02-04 12   16.0    91.0                  25          
1995-02-04 18   16.5    90.0                  25          
1995-02-05 00   16.9    88.8                  30          
1995-02-05 06   17.3    87.5                  30          
1995-02-05 12   17.6    86.2                  35          
1995-02-05 18   18.1    84.8                  35          
1995-02-06 00   18.5    83.4            1     40          
1995-02-06 06   18.8    82.0            1     40          
1995-02-06 12   19.1    80.5            1     40          
1995-02-06 18   19.4    78.9                  35          
1995-02-07 00   19.7    77.2                  35          
1995-02-07 06   20.1    75.7                  35          
1995-02-07 12   20.6    74.3                  30          
1995-02-07 18   21.3    73.1                  30          
1995-02-08 00   22.2    72.1                  25          
Winds are 1-min average.

Tropical cyclone tracks developed by Michael Bath using data from the Joint Typhoon Warning Centre Best Tracks and Google Maps.


[Australian Severe Weather index] [Copyright Notice] [Email Contacts] [Search This Site] [Privacy Policy]
Document: tropical_cyclone_heida.htm Updated: 18 September 2016